Latest Coastal Weather Observations for Rowley Shoals

IDW60701

Issued at 1:52 pm WST Saturday 20 December 2014 (issued every 10 minutes, with the page automatically refreshed every 10 minutes)

About coastal observations | Map of coastal stations | Coastal observations for WA | Marine services | Other Formats
Station Details ID: 200713 Name: ROWLEY SHOALS Lat: -17.52 Lon: 118.95 Height: 0.0 m
Data from the previous 72 hours. | See also: Recent months for locations in Western Australia
Date/Time
WST
Temp

°C
Wind Pressure Rain
since 9am
mm
Weather Cloud Vis
km
Sea
Height
m
Swell
Dir
 
Speed
knots
Gust
knots
hPa Trend Height
m
Period
s
Dir
20/01:30pm 29.1 SSW 9 11 1008.3 - - - - - - - - -
20/01:00pm 29.1 SSW 10 12 1008.4 - - - - - - - - -
20/12:30pm 28.9 SSW 10 13 1008.9 - - - - - - - - -
20/12:00pm 28.7 SSW 11 13 1009.1 - - - - - - - - -
20/11:30am 28.8 SSW 12 13 1009.6 - - - - - - - - -
20/11:00am 28.8 SSW 12 14 1009.8 - - - - - - - - -
20/10:30am 28.7 SW 12 15 1010.1 - - - - - - - - -
20/10:00am 28.6 SW 13 14 1010.1 - - - - - - - - -
20/09:30am 28.6 SSW 12 15 1010.2 - - - - - - - - -
20/09:00am 28.5 SW 12 14 1010.1 - - - - - - - - -
20/08:30am 28.6 SW 12 15 1010.3 - - - - - - - - -
20/08:00am 28.5 SW 13 16 1010.0 - - - - - - - - -
20/07:30am 28.5 SW 12 13 1009.8 - - - - - - - - -
20/07:00am 28.4 SW 12 14 1009.7 - - - - - - - - -
20/06:30am 28.5 SW 12 14 1009.5 - - - - - - - - -
20/06:00am 28.5 SW 10 11 1009.2 - - - - - - - - -
20/05:30am 28.5 SW 9 10 1009.1 - - - - - - - - -
20/05:00am 28.5 SW 9 10 1008.9 - - - - - - - - -
20/04:30am 28.6 SW 7 8 1008.9 - - - - - - - - -
20/04:00am 28.7 SW 7 8 1008.8 - - - - - - - - -
20/03:30am 28.8 SW 8 11 1008.8 - - - - - - - - -
20/03:00am 28.7 SW 7 8 1008.8 - - - - - - - - -
20/02:30am 28.6 SW 9 11 1008.8 - - - - - - - - -
20/02:00am 28.7 WSW 7 9 1008.7 - - - - - - - - -
20/01:30am 28.6 WSW 7 9 1008.8 - - - - - - - - -
20/01:00am 28.6 WSW 8 9 1008.8 - - - - - - - - -
20/12:30am 28.8 SW 8 9 1009.3 - - - - - - - - -
20/12:00am - SW 8 10 1009.7 - - - - - - - - -
 
Date/Time
WST
Temp

°C
Wind Pressure Rain
since 9am
mm
Weather Cloud Vis
km
Sea
Height
m
Swell
Dir
 
Speed
knots
Gust
knots
hPa Trend Height
m
Period
s
Dir
19/11:30pm - SW 8 10 1010.0 - - - - - - - - -
19/11:00pm 28.8 SW 8 10 1010.0 - - - - - - - - -
19/10:30pm 29.0 SW 8 9 1010.3 - - - - - - - - -
19/10:00pm 29.0 SW 8 10 1010.2 - - - - - - - - -
19/09:30pm 29.0 WSW 8 11 1010.2 - - - - - - - - -
19/09:00pm 29.0 WSW 10 11 1010.1 - - - - - - - - -
19/08:30pm 29.1 WSW 9 10 1010.3 - - - - - - - - -
19/08:00pm 29.0 WSW 8 10 1010.1 - - - - - - - - -
19/07:30pm 29.1 WSW 9 10 1009.6 - - - - - - - - -
19/07:00pm 28.9 SW 7 9 1009.3 - - - - - - - - -
19/06:30pm 29.2 SW 7 10 1009.6 - - - - - - - - -
19/06:00pm 29.3 SW 7 8 1009.5 - - - - - - - - -
19/05:30pm 29.4 SW 6 8 1009.6 - - - - - - - - -
19/05:00pm 29.7 SW 5 7 1009.4 - - - - - - - - -
19/04:30pm 29.9 SW 4 6 1009.3 - - - - - - - - -
19/04:00pm 29.6 SW 5 6 1009.2 - - - - - - - - -
19/03:30pm 29.8 SSW 4 6 1009.1 - - - - - - - - -
19/03:00pm 29.3 SW 5 6 1009.0 - - - - - - - - -
19/02:30pm 30.0 S 4 5 1009.5 - - - - - - - - -
19/02:00pm 29.9 S 4 6 1009.6 - - - - - - - - -
19/01:30pm 30.4 SSW 3 5 1009.8 - - - - - - - - -
19/01:00pm 30.7 SSW 3 4 1009.5 - - - - - - - - -
19/12:30pm 29.3 SW 1 4 1010.1 - - - - - - - - -
19/12:00pm 29.5 WSW 3 4 1010.2 - - - - - - - - -
19/11:30am 28.9 SSW 5 6 1010.7 - - - - - - - - -
19/11:00am 29.0 SW 5 6 1010.9 - - - - - - - - -
19/10:30am 28.7 SW 5 8 1010.8 - - - - - - - - -
19/10:00am 28.7 WSW 6 8 1010.8 - - - - - - - - -
19/09:30am 29.0 SSW 3 4 1011.2 - - - - - - - - -
19/09:00am 29.1 S 3 4 1011.3 - - - - - - - - -
19/08:30am 28.8 SSW 3 4 1011.3 - - - - - - - - -
19/08:00am 28.9 CALM 0 3 1011.1 - - - - - - - - -
19/07:30am 28.9 CALM 0 0 1010.7 - - - - - - - - -
19/07:00am 28.7 W 2 5 1010.4 - - - - - - - - -
19/06:00am 28.6 WNW 6 - 1009.8 - - - - - - - - -
19/05:00am 28.4 WNW 5 - 1009.3 - - - - - - - - -
19/04:00am 28.4 WNW 5 - 1008.6 - - - - - - - - -
19/03:00am 28.4 WNW 6 - 1008.4 - - - - - - - - -
19/02:00am 28.3 WNW 8 - 1008.3 - - - - - - - - -
19/01:00am 28.6 WNW 9 - 1008.9 - - - - - - - - -
19/12:00am 28.6 W 7 - 1009.3 - - - - - - - - -
 
Date/Time
WST
Temp

°C
Wind Pressure Rain
since 9am
mm
Weather Cloud Vis
km
Sea
Height
m
Swell
Dir
 
Speed
knots
Gust
knots
hPa Trend Height
m
Period
s
Dir
18/11:00pm 28.6 WNW 8 - 1009.6 - - - - - - - - -
18/10:00pm 28.7 WNW 9 - 1009.3 - - - - - - - - -
18/09:00pm 28.8 W 10 - 1009.1 - - - - - - - - -
18/08:00pm 28.8 W 10 - 1008.5 - - - - - - - - -
18/07:00pm 28.9 W 11 - 1007.9 - - - - - - - - -
18/06:00pm 29.1 W 11 - 1006.8 - - - - - - - - -
18/05:00pm 29.2 WNW 9 - 1006.5 - - - - - - - - -
18/04:00pm 29.1 WNW 8 - 1006.6 - - - - - - - - -
18/03:00pm 29.2 WNW 8 - 1007.0 - - - - - - - - -
18/02:00pm 29.1 W 8 - 1007.5 - - - - - - - - -
18/01:30pm 29.4 W 9 11 1007.7 - - - - - - - - -
18/01:00pm 29.1 W 9 11 1007.8 - - - - - - - - -
18/12:30pm 29.2 WNW 8 10 1008.3 - - - - - - - - -
18/12:00pm 29.0 WNW 8 11 1008.3 - - - - - - - - -
18/11:30am 29.1 WNW 8 12 1008.7 - - - - - - - - -
18/11:00am 28.8 W 8 9 1008.6 - - - - - - - - -
18/10:30am 28.7 W 9 11 1008.8 - - - - - - - - -
18/10:00am 28.7 W 8 11 1008.8 - - - - - - - - -
18/09:30am 28.6 W 9 10 1008.8 - - - - - - - - -
18/09:00am 28.6 W 10 13 1008.7 - - - - - - - - -
18/08:30am 28.5 W 11 13 1008.5 - - - - - - - - -
18/08:00am 28.4 WSW 11 13 1008.4 - - - - - - - - -
18/07:30am 28.5 WSW 11 13 1008.3 - - - - - - - - -
18/07:00am 28.7 WSW 12 17 1007.9 - - - - - - - - -
18/06:30am 28.4 WSW 14 16 1007.9 - - - - - - - - -
18/06:00am 28.5 W 14 17 1007.5 - - - - - - - - -
18/05:30am 28.5 W 14 16 1006.9 - - - - - - - - -
18/05:00am 28.6 W 14 16 1006.8 - - - - - - - - -
18/04:30am 28.5 W 14 17 1006.5 - - - - - - - - -
18/04:00am 28.7 W 14 15 1006.4 - - - - - - - - -
18/03:30am 28.6 W 14 16 1006.4 - - - - - - - - -
18/03:00am 28.5 W 15 18 1006.3 - - - - - - - - -
18/02:30am 28.6 W 13 15 1006.7 - - - - - - - - -
18/02:00am 28.8 W 13 16 1006.5 - - - - - - - - -
18/01:30am 28.7 W 13 15 1006.6 - - - - - - - - -
18/01:00am 29.1 W 13 15 1006.8 - - - - - - - - -
18/12:30am 28.6 W 13 16 1007.2 - - - - - - - - -
18/12:00am 29.0 W 12 16 1007.2 - - - - - - - - -
 
Date/Time
WST
Temp

°C
Wind Pressure Rain
since 9am
mm
Weather Cloud Vis
km
Sea
Height
m
Swell
Dir
 
Speed
knots
Gust
knots
hPa Trend Height
m
Period
s
Dir
17/11:30pm 28.9 W 13 15 1007.6 - - - - - - - - -
17/11:00pm 29.2 W 12 15 1007.7 - - - - - - - - -
17/10:30pm 29.4 W 13 15 1008.2 - - - - - - - - -
17/10:00pm 29.1 W 12 14 1008.0 - - - - - - - - -
17/09:30pm 29.1 WNW 13 14 1007.9 - - - - - - - - -
17/09:00pm 29.3 WNW 12 14 1007.5 - - - - - - - - -
17/08:30pm 29.2 WNW 11 13 1007.5 - - - - - - - - -
17/08:00pm 29.4 WNW 12 14 1007.1 - - - - - - - - -
17/07:30pm 29.3 WNW 12 15 1006.7 - - - - - - - - -
17/07:00pm 29.2 WNW 11 14 1006.3 - - - - - - - - -
17/06:30pm 29.0 WNW 11 13 1005.8 - - - - - - - - -
17/06:00pm 29.2 WNW 9 11 1005.5 - - - - - - - - -
17/05:30pm 29.3 WNW 8 9 1005.3 - - - - - - - - -
17/05:00pm 29.4 WNW 6 7 1005.1 - - - - - - - - -
17/04:30pm 29.3 W 7 9 1005.1 - - - - - - - - -
17/04:00pm 29.3 W 8 11 1005.0 - - - - - - - - -
17/03:30pm 29.4 W 11 13 1005.2 - - - - - - - - -
17/03:00pm 29.2 W 11 13 1005.1 - - - - - - - - -
17/02:30pm 29.3 W 12 14 1005.3 - - - - - - - - -
17/02:00pm 29.4 W 11 14 1005.3 - - - - - - - - -

Other Formats:

Comma delimited format used in spreadsheet applications
http://www.bom.gov.au/fwo/IDW60701/IDW60701.94207.axf

JavaScript Object Notation format (JSON) in row-major order
http://www.bom.gov.au/fwo/IDW60701/IDW60701.94207.json